CheckWX is a tool to help pilots better visualize weather data.  It is not intended as a substitute for an official pre-flight weather briefing.

17:26:21 UTC

VTSB TAF
Surat Thani Airport
Surat Thani, Thailand
TAF VTSB 200500Z 2006/2106 07008KT 9999 SCT020 BKN100 TEMPO 2006/2012 VRB10G20KT 3000 TSRA FEW016CB SCT018 BKN100 TEMPO 2012/2018 5000 RA SCT015 OVC100 TEMPO 2022/2104 5000 RA SCT015 OVC100

Oct-20@
06:00 UTC

Oct-20 @ 06:00 UTC

Oct-21@
06:00 UTC

Oct-21 @ 06:00 UTC

TAF VTSB 200500Z 2006/2106 07008KT 9999 SCT020 BKN100
Wind
  • 070° at 8 KTS
Cloud Levels
  • Scattered at 2,000' AGL
  • Broken at 10,000' AGL

Oct-20@
06:00 UTC

Oct-20 @ 06:00 UTC

Oct-20@
12:00 UTC

Oct-20 @ 12:00 UTC

TEMPO 2006/2012 VRB10G20KT 3000 TSRA FEW016CB SCT018 BKN100

Expired

Wind
  • Variable at 10 KTS
  • {Gusting to 20 KTS
Conditions
Thunderstorm, Rain
Cloud Levels
  • Few at 1,600' AGL
  • Scattered at 1,800' AGL
  • Broken at 10,000' AGL

Oct-20@
12:00 UTC

Oct-20 @ 12:00 UTC

Oct-20@
18:00 UTC

Oct-20 @ 18:00 UTC

TEMPO 2012/2018 5000 RA SCT015 OVC100

Temporary

Temporary Changes expected for less than half the time period

Conditions
Rain
Cloud Levels
  • Scattered at 1,500' AGL
  • Overcast at 10,000' AGL

Oct-20@
22:00 UTC

Oct-20 @ 22:00 UTC

Oct-21@
04:00 UTC

Oct-21 @ 04:00 UTC

TEMPO 2022/2104 5000 RA SCT015 OVC100

Temporary

Temporary Changes expected for less than half the time period

Conditions
Rain
Cloud Levels
  • Scattered at 1,500' AGL
  • Overcast at 10,000' AGL